Latest Weather Observations for Parndana

IDS60801

Issued at 11:01 pm CST Monday 26 June 2017 (issued every 30 minutes, with the page automatically refreshed every 10 minutes)

About weather observations | Map of weather stations | Latest weather observations for SA | Other Formats
Station Details ID: 022843 Name: PARNDANA CFS AWS Lat: -35.79 Lon: 137.25 Height: 165.0 m
Data from the previous 72 hours. | See also: Recent months at Parndana
Date/Time
CST
Temp
°C
App
Temp
°C
Dew
Point
°C
Rel
Hum
%
Delta-T
°C
Wind Press
QNH
hPa
Press
MSL
hPa
Rain since
9am
mm
Dir  Spd
km/h
Gust
km/h
Spd
kts
Gust
kts
26/11:00pm 7.6 5.6 7.2 97 0.2 N 7 9 4 5 - - 1.0
26/10:30pm 7.6 5.2 7.2 97 0.2 N 9 9 5 5 - - 1.0
26/10:00pm 7.7 5.7 7.1 96 0.3 N 7 9 4 5 - - 1.0
26/09:30pm 8.8 6.7 8.4 97 0.2 N 9 13 5 7 - - 1.0
26/09:00pm 8.8 7.2 8.2 96 0.3 NNE 6 6 3 3 - - 1.0
26/08:30pm 8.6 7.3 7.8 95 0.4 ENE 4 6 2 3 - - 1.0
26/08:00pm 8.7 7.8 7.9 95 0.4 NE 2 2 1 1 - - 1.0
26/07:30pm 9.6 8.6 8.8 95 0.4 E 4 6 2 3 - - 1.0
26/07:00pm 9.9 9.0 9.1 95 0.4 ENE 4 6 2 3 - - 1.0
26/06:30pm 10.0 9.1 9.1 94 0.4 ENE 4 4 2 2 - - 1.0
26/06:00pm 10.3 9.7 9.1 92 0.6 ENE 2 6 1 3 - - 0.6
26/05:30pm 10.4 9.0 9.0 91 0.7 ESE 6 7 3 4 - - 0.4
26/05:00pm 10.4 8.9 9.0 91 0.7 E 7 11 4 6 - - 0.4
26/04:30pm 11.1 8.9 9.2 88 1.0 E 11 13 6 7 - - 0.4
26/04:00pm 11.4 9.5 9.1 86 1.2 ESE 9 13 5 7 - - 0.4
26/03:30pm 12.2 10.6 10.1 87 1.1 ESE 9 13 5 7 - - 0.4
26/03:00pm 12.1 11.1 8.9 81 1.6 SSE 4 6 2 3 - - 0.2
26/02:30pm 12.9 11.3 8.2 73 2.3 S 6 7 3 4 - - 0.0
26/02:00pm 13.3 12.2 8.4 72 2.5 S 4 9 2 5 - - 0.0
26/01:30pm 13.3 12.0 9.2 76 2.1 S 6 9 3 5 - - 0.0
26/01:00pm 12.3 10.4 9.1 81 1.6 SSE 9 13 5 7 - - 0.0
26/12:30pm 13.2 11.4 8.1 71 2.5 SE 7 11 4 6 - - 0.0
26/12:00pm 13.1 11.7 7.3 68 2.8 NW 4 6 2 3 - - 0.0
26/11:30am 11.8 10.6 7.9 77 1.9 S 4 7 2 4 - - 0.0
26/11:00am 11.6 10.1 8.3 80 1.6 S 6 7 3 4 - - 0.0
26/10:30am 11.9 10.7 10.3 90 0.8 S 7 9 4 5 - - 0.0
26/10:00am 10.7 9.4 10.1 96 0.3 SE 7 9 4 5 - - 0.0
26/09:30am 9.4 7.5 9.1 98 0.1 S 9 9 5 5 - - 0.0
26/09:00am 7.9 6.0 7.6 98 0.1 S 7 9 4 5 - - 0.2
26/08:30am 5.8 3.4 5.4 97 0.2 S 7 9 4 5 - - 0.2
26/08:00am 6.3 5.0 6.0 98 0.1 SSW 2 4 1 2 - - 0.2
26/07:30am 5.2 2.9 4.8 97 0.2 SW 6 7 3 4 - - 0.2
26/07:00am 6.6 4.6 6.3 98 0.1 W 6 6 3 3 - - 0.2
26/06:30am 6.6 4.6 6.3 98 0.1 W 6 7 3 4 - - 0.2
26/06:00am 6.7 5.5 6.4 98 0.1 NW 2 4 1 2 - - 0.2
26/05:30am 5.5 3.3 5.2 98 0.1 NW 6 6 3 3 - - 0.2
26/05:00am 5.3 3.0 4.7 96 0.3 NW 6 6 3 3 - - 0.2
26/04:30am 5.9 3.6 5.6 98 0.1 WNW 7 11 4 6 - - 0.2
26/04:00am 6.8 6.0 6.4 97 0.2 CALM 0 0 0 0 - - 0.2
26/03:30am 7.8 6.1 7.4 97 0.2 S 6 7 3 4 - - 0.0
26/03:00am 7.7 5.9 7.3 97 0.2 SSW 6 6 3 3 - - 0.0
26/02:30am 7.0 5.1 6.6 97 0.2 SSW 6 7 3 4 - - 0.0
26/02:00am 7.4 5.9 7.0 97 0.2 WSW 4 6 2 3 - - 0.0
26/01:30am 7.5 6.1 7.1 97 0.2 WSW 4 4 2 2 - - 0.0
26/01:00am 7.9 6.1 7.3 96 0.3 WSW 6 7 3 4 - - 0.0
26/12:30am 8.6 6.1 8.2 97 0.2 W 11 13 6 7 - - 0.0
26/12:00am 8.8 6.7 8.4 97 0.2 WSW 9 13 5 7 - - 0.0
 
Date/Time
CST
Temp
°C
App
Temp
°C
Dew
Point
°C
Rel
Hum
%
Delta-T
°C
Wind Press
QNH
hPa
Press
MSL
hPa
Rain since
9am
mm
Dir  Spd
km/h
Gust
km/h
Spd
kts
Gust
kts
25/11:30pm 7.0 4.8 6.4 96 0.3 WNW 7 9 4 5 - - 0.0
25/11:00pm 7.3 4.8 6.6 95 0.3 W 9 11 5 6 - - 0.0
25/10:30pm 8.4 6.2 7.8 96 0.3 WSW 9 11 5 6 - - 0.0
25/10:00pm 8.4 5.8 7.6 95 0.4 WSW 11 13 6 7 - - 0.0
25/09:30pm 8.7 6.1 7.8 94 0.4 WSW 11 15 6 8 - - 0.0
25/09:00pm 8.6 5.2 7.8 95 0.4 W 15 19 8 10 - - 0.0
25/08:30pm 7.4 4.1 6.5 94 0.4 WSW 13 15 7 8 - - 0.0
25/08:00pm 7.8 5.0 6.9 94 0.4 WSW 11 13 6 7 - - 0.0
25/07:30pm 7.2 3.9 6.3 94 0.4 W 13 13 7 7 - - 0.0
25/07:00pm 7.6 4.0 6.9 95 0.3 WNW 15 17 8 9 - - 0.0
25/06:30pm 7.8 5.0 6.9 94 0.4 W 11 15 6 8 - - 0.0
25/06:00pm 8.0 5.2 6.8 92 0.6 NW 11 13 6 7 - - 0.0
25/05:30pm 8.7 6.3 6.8 88 0.9 NW 9 11 5 6 - - 0.0
25/05:00pm 10.8 7.9 8.2 84 1.3 WSW 13 17 7 9 - - 0.0
25/04:30pm 11.1 6.6 8.5 84 1.3 W 22 32 12 17 - - 0.0
25/04:00pm 12.1 9.4 8.8 80 1.7 W 13 19 7 10 - - 0.0
25/03:30pm 12.7 9.8 9.5 81 1.6 WSW 15 22 8 12 - - 0.0
25/03:00pm 12.2 9.5 10.3 88 1.0 WSW 15 19 8 10 - - 0.0
25/02:34pm 10.9 5.3 8.7 86 1.1 WSW 28 50 15 27 - - 0.0
25/02:30pm 11.7 6.3 7.8 77 1.9 WSW 26 50 14 27 - - 0.0
25/02:00pm 12.7 8.9 9.0 78 1.9 WSW 19 24 10 13 - - 0.0
25/01:30pm 13.7 9.3 7.5 66 3.1 W 20 26 11 14 - - 0.0
25/01:00pm 13.3 8.1 7.3 67 2.9 W 24 32 13 17 - - 0.0
25/12:30pm 13.9 9.1 7.2 64 3.3 WSW 22 30 12 16 - - 0.0
25/12:00pm 13.7 9.2 7.0 64 3.3 WSW 20 28 11 15 - - 0.0
25/11:30am 13.1 8.9 7.3 68 2.8 WSW 19 26 10 14 - - 0.0
25/11:00am 12.7 8.3 7.6 71 2.5 WSW 20 30 11 16 - - 0.0
25/10:30am 12.2 8.5 7.9 75 2.1 WSW 17 26 9 14 - - 0.0
25/10:00am 11.6 9.0 9.5 87 1.1 WSW 13 20 7 11 - - 0.0
25/09:30am 10.7 8.7 10.2 97 0.3 W 11 13 6 7 - - 0.0
25/09:00am 9.1 7.5 8.8 98 0.1 WNW 7 11 4 6 - - 0.4
25/08:30am 7.9 5.6 7.6 98 0.1 W 9 11 5 6 - - 0.4
25/08:00am 6.5 4.3 6.1 97 0.2 WNW 7 11 4 6 - - 0.4
25/07:30am 7.6 5.6 7.2 97 0.2 W 7 9 4 5 - - 0.2
25/07:00am 8.5 6.0 8.2 98 0.1 W 11 17 6 9 - - 0.2
25/06:30am 6.9 4.0 6.6 98 0.1 W 11 13 6 7 - - 0.2
25/06:00am 7.5 5.1 7.2 98 0.1 W 9 13 5 7 - - 0.2
25/05:30am 5.4 1.8 5.1 98 0.1 WNW 13 15 7 8 - - 0.0
25/05:00am 4.8 1.9 4.5 98 0.1 WNW 9 11 5 6 - - 0.0
25/04:30am 3.5 0.7 3.2 98 0.1 WNW 7 9 4 5 - - 0.0
25/04:00am 5.0 2.7 4.7 98 0.1 NW 6 9 3 5 - - 0.0
25/03:30am 5.6 3.4 5.3 98 0.1 WNW 6 7 3 4 - - 0.0
25/03:00am 3.9 1.2 3.5 97 0.2 N 7 9 4 5 - - 0.0
25/02:30am 4.8 2.4 4.4 97 0.2 SW 6 7 3 4 - - 0.0
25/02:00am 5.6 2.8 5.2 97 0.2 W 9 9 5 5 - - 0.0
25/01:30am 6.6 4.4 6.3 98 0.1 WNW 7 7 4 4 - - 0.0
25/01:00am 6.9 4.8 6.5 97 0.2 NW 7 7 4 4 - - 0.0
25/12:30am 6.3 4.2 5.6 95 0.3 WNW 6 7 3 4 - - 0.0
25/12:00am 7.5 5.7 7.1 97 0.2 WNW 6 7 3 4 - - 0.0
 
Date/Time
CST
Temp
°C
App
Temp
°C
Dew
Point
°C
Rel
Hum
%
Delta-T
°C
Wind Press
QNH
hPa
Press
MSL
hPa
Rain since
9am
mm
Dir  Spd
km/h
Gust
km/h
Spd
kts
Gust
kts
24/11:30pm 7.4 5.6 7.0 97 0.2 WNW 6 6 3 3 - - 0.0
24/11:00pm 7.1 5.0 6.7 97 0.2 SW 7 9 4 5 - - 0.0
24/10:30pm 6.7 5.0 6.1 96 0.3 SW 4 6 2 3 - - 0.0
24/10:00pm 6.0 4.2 5.4 96 0.3 SSW 4 7 2 4 - - 0.0
24/09:30pm 6.7 5.4 6.1 96 0.3 SSW 2 6 1 3 - - 0.0
24/09:00pm 7.6 6.9 7.0 96 0.3 CALM 0 0 0 0 - - 0.0
24/08:30pm 7.2 5.1 6.6 96 0.3 SSW 7 7 4 4 - - 0.0
24/08:00pm 7.4 5.3 6.5 94 0.4 SSW 7 11 4 6 - - 0.0
24/07:30pm 8.6 7.0 7.8 95 0.4 S 6 6 3 3 - - 0.0
24/07:00pm 9.0 7.8 7.9 93 0.5 ESE 4 6 2 3 - - 0.0
24/06:30pm 9.3 8.1 8.2 93 0.5 ESE 4 4 2 2 - - 0.0
24/06:00pm 9.5 8.4 8.3 92 0.6 ESE 4 4 2 2 - - 0.0
24/05:30pm 9.4 7.8 7.8 90 0.8 ESE 6 7 3 4 - - 0.0
24/05:00pm 11.2 9.8 9.6 90 0.8 SE 7 9 4 5 - - 0.0
24/04:30pm 11.5 9.3 9.4 87 1.1 SSE 11 13 6 7 - - 0.0
24/04:00pm 11.6 9.4 9.5 87 1.1 SSE 11 13 6 7 - - 0.0
24/03:30pm 11.7 9.2 9.8 88 1.0 S 13 17 7 9 - - 0.0
24/03:00pm 13.0 11.7 9.8 81 1.7 SW 7 9 4 5 - - 0.0
24/02:30pm 13.1 11.9 9.7 80 1.8 S 6 6 3 3 - - 0.0
24/02:00pm 13.0 12.2 9.8 81 1.7 S 4 6 2 3 - - 0.0
24/01:30pm 12.8 11.8 10.2 84 1.4 S 6 7 3 4 - - 0.0
24/01:00pm 12.7 11.1 10.2 85 1.3 SSE 9 11 5 6 - - 0.0
24/12:30pm 13.1 12.0 10.1 82 1.6 SSE 6 7 3 4 - - 0.0
24/12:00pm 12.9 11.7 10.4 85 1.3 SSE 7 9 4 5 - - 0.0
24/11:30am 12.9 11.8 9.9 82 1.6 SE 6 9 3 5 - - 0.0
24/11:00am 12.8 11.5 10.0 83 1.5 SSE 7 9 4 5 - - 0.0
24/10:30am 13.0 12.2 11.2 89 1.0 SSE 6 9 3 5 - - 0.0
24/10:00am 12.1 11.8 11.5 96 0.3 SSE 4 6 2 3 - - 0.0
24/09:30am 10.9 10.3 10.4 97 0.3 SSE 4 4 2 2 - - 0.0
24/09:00am 10.2 10.2 9.9 98 0.2 CALM 0 0 0 0 - - 0.2
24/08:30am 8.2 7.7 7.8 97 0.2 CALM 0 0 0 0 - - 0.2
24/08:00am 8.8 8.1 8.5 98 0.1 SSE 2 4 1 2 - - 0.2
24/07:30am 8.9 7.4 8.5 97 0.2 SSE 6 6 3 3 - - 0.2
24/07:00am 8.4 7.2 8.0 97 0.2 SSW 4 6 2 3 - - 0.2
24/06:30am 8.5 7.3 8.1 97 0.2 S 4 6 2 3 - - 0.2
24/06:00am 8.3 6.7 7.9 97 0.2 SSW 6 7 3 4 - - 0.2
24/05:30am 7.4 5.9 7.0 97 0.2 S 4 6 2 3 - - 0.2
24/05:00am 7.8 6.4 7.4 97 0.2 NW 4 6 2 3 - - 0.2
24/04:30am 8.3 6.7 8.0 98 0.1 WSW 6 6 3 3 - - 0.2
24/04:00am 7.8 5.9 7.4 97 0.2 WSW 7 9 4 5 - - 0.2
24/03:30am 7.4 5.4 7.0 97 0.2 WSW 7 9 4 5 - - 0.2
24/03:00am 8.3 6.7 7.9 97 0.2 SW 6 6 3 3 - - 0.2
24/02:30am 8.1 6.5 7.8 98 0.1 SSW 6 6 3 3 - - 0.2
24/02:00am 7.1 5.2 6.8 98 0.1 SW 6 7 3 4 - - 0.2
24/01:30am 7.4 5.4 7.0 97 0.2 SW 7 9 4 5 - - 0.2
24/01:00am 7.0 5.0 6.4 96 0.3 SW 6 7 3 4 - - 0.2
24/12:30am 7.9 6.2 7.6 98 0.1 SW 6 6 3 3 - - 0.2
24/12:00am 6.7 4.5 6.3 97 0.2 WSW 7 7 4 4 - - 0.0
 
Date/Time
CST
Temp
°C
App
Temp
°C
Dew
Point
°C
Rel
Hum
%
Delta-T
°C
Wind Press
QNH
hPa
Press
MSL
hPa
Rain since
9am
mm
Dir  Spd
km/h
Gust
km/h
Spd
kts
Gust
kts
23/11:30pm 8.4 6.8 8.0 97 0.2 SW 6 7 3 4 - - 0.0

Other Formats:

Comma delimited format used in spreadsheet applications
http://www.bom.gov.au/fwo/IDS60801/IDS60801.94807.axf

JavaScript Object Notation format (JSON) in row-major order
http://www.bom.gov.au/fwo/IDS60801/IDS60801.94807.json